sensor_id;sensor_type;location;lat;lon;timestamp;P1;durP1;ratioP1;P2;durP2;ratioP2
59308;SDS011;48433;53.016;-2.260;2023-09-07T00:02:10;17.80;;;12.48;;
59308;SDS011;48433;53.016;-2.260;2023-09-07T00:04:38;18.35;;;13.48;;
59308;SDS011;48433;53.016;-2.260;2023-09-07T00:07:06;16.00;;;12.35;;
59308;SDS011;48433;53.016;-2.260;2023-09-07T00:09:34;15.75;;;13.23;;
59308;SDS011;48433;53.016;-2.260;2023-09-07T00:12:01;16.02;;;12.82;;
59308;SDS011;48433;53.016;-2.260;2023-09-07T00:14:29;18.73;;;12.60;;
59308;SDS011;48433;53.016;-2.260;2023-09-07T00:16:57;15.70;;;12.38;;
59308;SDS011;48433;53.016;-2.260;2023-09-07T00:19:25;15.82;;;13.32;;
59308;SDS011;48433;53.016;-2.260;2023-09-07T00:21:53;26.45;;;20.95;;
59308;SDS011;48433;53.016;-2.260;2023-09-07T00:24:20;19.40;;;15.93;;
59308;SDS011;48433;53.016;-2.260;2023-09-07T00:26:50;17.30;;;12.73;;
59308;SDS011;48433;53.016;-2.260;2023-09-07T00:29:18;14.75;;;12.55;;
59308;SDS011;48433;53.016;-2.260;2023-09-07T00:31:46;19.88;;;13.88;;
59308;SDS011;48433;53.016;-2.260;2023-09-07T00:34:14;17.48;;;13.25;;
59308;SDS011;48433;53.016;-2.260;2023-09-07T00:36:42;19.35;;;14.20;;
59308;SDS011;48433;53.016;-2.260;2023-09-07T00:39:10;18.63;;;13.70;;
59308;SDS011;48433;53.016;-2.260;2023-09-07T00:41:37;17.35;;;12.88;;
59308;SDS011;48433;53.016;-2.260;2023-09-07T00:44:05;17.40;;;14.13;;
59308;SDS011;48433;53.016;-2.260;2023-09-07T00:46:33;18.38;;;12.85;;
59308;SDS011;48433;53.016;-2.260;2023-09-07T00:49:01;16.77;;;14.25;;
59308;SDS011;48433;53.016;-2.260;2023-09-07T00:51:29;18.85;;;14.18;;
59308;SDS011;48433;53.016;-2.260;2023-09-07T00:53:57;17.98;;;14.65;;
59308;SDS011;48433;53.016;-2.260;2023-09-07T00:56:26;17.75;;;13.65;;
59308;SDS011;48433;53.016;-2.260;2023-09-07T00:58:54;20.60;;;14.05;;
59308;SDS011;48433;53.016;-2.260;2023-09-07T01:01:23;19.25;;;14.60;;
59308;SDS011;48433;53.016;-2.260;2023-09-07T01:03:51;21.10;;;14.63;;
59308;SDS011;48433;53.016;-2.260;2023-09-07T01:06:20;19.50;;;15.18;;
59308;SDS011;48433;53.016;-2.260;2023-09-07T01:08:54;19.30;;;14.65;;
59308;SDS011;48433;53.016;-2.260;2023-09-07T01:11:25;20.85;;;14.65;;
59308;SDS011;48433;53.016;-2.260;2023-09-07T01:13:53;19.92;;;13.95;;
59308;SDS011;48433;53.016;-2.260;2023-09-07T01:16:22;18.83;;;13.80;;
59308;SDS011;48433;53.016;-2.260;2023-09-07T01:18:51;17.80;;;14.15;;
59308;SDS011;48433;53.016;-2.260;2023-09-07T01:21:19;18.40;;;14.93;;
59308;SDS011;48433;53.016;-2.260;2023-09-07T01:23:49;17.15;;;12.65;;
59308;SDS011;48433;53.016;-2.260;2023-09-07T01:26:17;15.00;;;11.43;;
59308;SDS011;48433;53.016;-2.260;2023-09-07T01:28:45;16.60;;;10.90;;
59308;SDS011;48433;53.016;-2.260;2023-09-07T01:31:13;15.50;;;11.27;;
59308;SDS011;48433;53.016;-2.260;2023-09-07T01:33:40;13.70;;;10.25;;
59308;SDS011;48433;53.016;-2.260;2023-09-07T01:36:08;15.10;;;10.57;;
59308;SDS011;48433;53.016;-2.260;2023-09-07T01:38:36;14.10;;;10.23;;
59308;SDS011;48433;53.016;-2.260;2023-09-07T01:41:03;18.48;;;11.75;;
59308;SDS011;48433;53.016;-2.260;2023-09-07T01:43:31;14.70;;;11.63;;
59308;SDS011;48433;53.016;-2.260;2023-09-07T01:45:59;16.92;;;11.50;;
59308;SDS011;48433;53.016;-2.260;2023-09-07T01:48:26;14.52;;;11.55;;
59308;SDS011;48433;53.016;-2.260;2023-09-07T01:50:54;17.02;;;11.48;;
59308;SDS011;48433;53.016;-2.260;2023-09-07T01:53:23;16.98;;;11.82;;
59308;SDS011;48433;53.016;-2.260;2023-09-07T01:55:53;14.52;;;10.93;;
59308;SDS011;48433;53.016;-2.260;2023-09-07T01:58:23;13.85;;;10.85;;
59308;SDS011;48433;53.016;-2.260;2023-09-07T02:00:57;16.30;;;10.80;;
59308;SDS011;48433;53.016;-2.260;2023-09-07T02:03:26;16.63;;;11.38;;
59308;SDS011;48433;53.016;-2.260;2023-09-07T02:05:54;15.13;;;10.38;;
59308;SDS011;48433;53.016;-2.260;2023-09-07T02:08:22;15.73;;;10.50;;
59308;SDS011;48433;53.016;-2.260;2023-09-07T02:10:50;13.38;;;10.63;;
59308;SDS011;48433;53.016;-2.260;2023-09-07T02:13:18;15.93;;;9.90;;
59308;SDS011;48433;53.016;-2.260;2023-09-07T02:15:45;16.10;;;11.15;;
59308;SDS011;48433;53.016;-2.260;2023-09-07T02:18:13;13.32;;;10.13;;
59308;SDS011;48433;53.016;-2.260;2023-09-07T02:20:41;13.85;;;10.05;;
59308;SDS011;48433;53.016;-2.260;2023-09-07T02:23:08;12.45;;;10.25;;
59308;SDS011;48433;53.016;-2.260;2023-09-07T02:25:36;13.60;;;10.48;;
59308;SDS011;48433;53.016;-2.260;2023-09-07T02:28:04;16.75;;;11.25;;
59308;SDS011;48433;53.016;-2.260;2023-09-07T02:30:32;14.52;;;10.55;;
59308;SDS011;48433;53.016;-2.260;2023-09-07T02:33:01;14.48;;;10.93;;
59308;SDS011;48433;53.016;-2.260;2023-09-07T02:35:28;16.02;;;10.75;;
59308;SDS011;48433;53.016;-2.260;2023-09-07T02:37:56;14.23;;;10.48;;
59308;SDS011;48433;53.016;-2.260;2023-09-07T02:40:24;14.98;;;10.40;;
59308;SDS011;48433;53.016;-2.260;2023-09-07T02:42:52;14.40;;;10.00;;
59308;SDS011;48433;53.016;-2.260;2023-09-07T02:45:20;16.60;;;11.27;;
59308;SDS011;48433;53.016;-2.260;2023-09-07T02:47:48;16.13;;;11.68;;
59308;SDS011;48433;53.016;-2.260;2023-09-07T02:50:18;13.73;;;10.05;;
59308;SDS011;48433;53.016;-2.260;2023-09-07T02:52:45;14.70;;;9.82;;
59308;SDS011;48433;53.016;-2.260;2023-09-07T02:55:13;17.60;;;10.02;;
59308;SDS011;48433;53.016;-2.260;2023-09-07T02:57:41;12.30;;;9.95;;
59308;SDS011;48433;53.016;-2.260;2023-09-07T03:00:09;12.40;;;10.23;;
59308;SDS011;48433;53.016;-2.260;2023-09-07T03:02:38;14.50;;;10.65;;
59308;SDS011;48433;53.016;-2.260;2023-09-07T03:05:06;14.38;;;10.98;;
59308;SDS011;48433;53.016;-2.260;2023-09-07T03:07:35;15.30;;;11.27;;
59308;SDS011;48433;53.016;-2.260;2023-09-07T03:10:02;21.60;;;11.93;;
59308;SDS011;48433;53.016;-2.260;2023-09-07T03:12:30;14.68;;;10.70;;
59308;SDS011;48433;53.016;-2.260;2023-09-07T03:14:58;18.67;;;10.60;;
59308;SDS011;48433;53.016;-2.260;2023-09-07T03:17:30;14.90;;;10.68;;
59308;SDS011;48433;53.016;-2.260;2023-09-07T03:19:58;13.05;;;11.00;;
59308;SDS011;48433;53.016;-2.260;2023-09-07T03:22:26;18.23;;;12.05;;
59308;SDS011;48433;53.016;-2.260;2023-09-07T03:24:56;15.63;;;11.17;;
59308;SDS011;48433;53.016;-2.260;2023-09-07T03:27:24;14.82;;;11.60;;
59308;SDS011;48433;53.016;-2.260;2023-09-07T03:29:52;16.20;;;12.10;;
59308;SDS011;48433;53.016;-2.260;2023-09-07T03:32:21;15.07;;;11.23;;
59308;SDS011;48433;53.016;-2.260;2023-09-07T03:34:49;17.92;;;11.40;;
59308;SDS011;48433;53.016;-2.260;2023-09-07T03:37:16;15.32;;;11.10;;
59308;SDS011;48433;53.016;-2.260;2023-09-07T03:39:44;14.88;;;11.15;;
59308;SDS011;48433;53.016;-2.260;2023-09-07T03:42:12;14.85;;;10.98;;
59308;SDS011;48433;53.016;-2.260;2023-09-07T03:44:39;14.48;;;11.35;;
59308;SDS011;48433;53.016;-2.260;2023-09-07T03:47:07;12.63;;;10.10;;
59308;SDS011;48433;53.016;-2.260;2023-09-07T03:49:36;18.67;;;11.63;;
59308;SDS011;48433;53.016;-2.260;2023-09-07T03:52:05;14.18;;;11.13;;
59308;SDS011;48433;53.016;-2.260;2023-09-07T03:54:32;16.33;;;12.57;;
59308;SDS011;48433;53.016;-2.260;2023-09-07T03:57:01;14.05;;;11.13;;
59308;SDS011;48433;53.016;-2.260;2023-09-07T03:59:30;15.38;;;11.85;;
59308;SDS011;48433;53.016;-2.260;2023-09-07T04:01:58;13.93;;;11.43;;
59308;SDS011;48433;53.016;-2.260;2023-09-07T04:04:26;14.43;;;11.20;;
59308;SDS011;48433;53.016;-2.260;2023-09-07T04:06:54;14.57;;;10.75;;
59308;SDS011;48433;53.016;-2.260;2023-09-07T04:09:22;13.88;;;11.65;;
59308;SDS011;48433;53.016;-2.260;2023-09-07T04:11:50;14.18;;;10.90;;
59308;SDS011;48433;53.016;-2.260;2023-09-07T04:14:18;15.10;;;11.65;;
59308;SDS011;48433;53.016;-2.260;2023-09-07T04:16:46;16.02;;;11.25;;
59308;SDS011;48433;53.016;-2.260;2023-09-07T04:19:14;14.70;;;10.65;;
59308;SDS011;48433;53.016;-2.260;2023-09-07T04:21:41;15.38;;;11.85;;
59308;SDS011;48433;53.016;-2.260;2023-09-07T04:24:09;15.32;;;11.85;;
59308;SDS011;48433;53.016;-2.260;2023-09-07T04:26:37;17.65;;;14.00;;
59308;SDS011;48433;53.016;-2.260;2023-09-07T04:29:06;18.23;;;13.48;;
59308;SDS011;48433;53.016;-2.260;2023-09-07T04:31:34;15.75;;;12.85;;
59308;SDS011;48433;53.016;-2.260;2023-09-07T04:34:02;19.40;;;13.45;;
59308;SDS011;48433;53.016;-2.260;2023-09-07T04:36:30;15.65;;;11.20;;
59308;SDS011;48433;53.016;-2.260;2023-09-07T04:38:58;14.98;;;11.43;;
59308;SDS011;48433;53.016;-2.260;2023-09-07T04:41:26;15.60;;;11.70;;
59308;SDS011;48433;53.016;-2.260;2023-09-07T04:43:54;12.77;;;10.75;;
59308;SDS011;48433;53.016;-2.260;2023-09-07T04:46:22;15.23;;;12.25;;
59308;SDS011;48433;53.016;-2.260;2023-09-07T04:48:50;17.00;;;11.88;;
59308;SDS011;48433;53.016;-2.260;2023-09-07T04:51:18;14.40;;;11.45;;
59308;SDS011;48433;53.016;-2.260;2023-09-07T04:53:49;15.70;;;12.05;;
59308;SDS011;48433;53.016;-2.260;2023-09-07T04:56:21;15.32;;;12.38;;
59308;SDS011;48433;53.016;-2.260;2023-09-07T04:58:49;14.85;;;11.98;;
59308;SDS011;48433;53.016;-2.260;2023-09-07T05:01:17;15.15;;;12.75;;
59308;SDS011;48433;53.016;-2.260;2023-09-07T05:03:45;16.08;;;12.38;;
59308;SDS011;48433;53.016;-2.260;2023-09-07T05:06:13;15.05;;;10.95;;
59308;SDS011;48433;53.016;-2.260;2023-09-07T05:08:41;15.43;;;12.07;;
59308;SDS011;48433;53.016;-2.260;2023-09-07T05:11:10;17.25;;;12.32;;
59308;SDS011;48433;53.016;-2.260;2023-09-07T05:13:38;16.27;;;12.35;;
59308;SDS011;48433;53.016;-2.260;2023-09-07T05:16:06;15.70;;;12.60;;
59308;SDS011;48433;53.016;-2.260;2023-09-07T05:18:35;16.02;;;11.98;;
59308;SDS011;48433;53.016;-2.260;2023-09-07T05:21:15;14.77;;;12.63;;
59308;SDS011;48433;53.016;-2.260;2023-09-07T05:23:43;15.05;;;12.90;;
59308;SDS011;48433;53.016;-2.260;2023-09-07T05:26:11;14.52;;;11.27;;
59308;SDS011;48433;53.016;-2.260;2023-09-07T05:28:41;21.30;;;12.15;;
59308;SDS011;48433;53.016;-2.260;2023-09-07T05:33:38;14.70;;;11.55;;
59308;SDS011;48433;53.016;-2.260;2023-09-07T05:36:06;15.20;;;12.25;;
59308;SDS011;48433;53.016;-2.260;2023-09-07T05:38:35;16.58;;;11.93;;
59308;SDS011;48433;53.016;-2.260;2023-09-07T05:41:04;17.77;;;13.07;;
59308;SDS011;48433;53.016;-2.260;2023-09-07T05:43:31;16.38;;;11.57;;
59308;SDS011;48433;53.016;-2.260;2023-09-07T05:45:59;17.80;;;13.50;;
59308;SDS011;48433;53.016;-2.260;2023-09-07T05:48:27;17.38;;;12.95;;
59308;SDS011;48433;53.016;-2.260;2023-09-07T05:50:55;15.98;;;11.70;;
59308;SDS011;48433;53.016;-2.260;2023-09-07T05:53:23;17.83;;;12.82;;
59308;SDS011;48433;53.016;-2.260;2023-09-07T05:55:52;17.55;;;11.75;;
59308;SDS011;48433;53.016;-2.260;2023-09-07T05:58:19;23.00;;;12.70;;
59308;SDS011;48433;53.016;-2.260;2023-09-07T06:00:47;18.88;;;10.73;;
59308;SDS011;48433;53.016;-2.260;2023-09-07T06:03:16;20.10;;;11.52;;
59308;SDS011;48433;53.016;-2.260;2023-09-07T06:05:44;19.25;;;13.15;;
59308;SDS011;48433;53.016;-2.260;2023-09-07T06:08:12;17.58;;;12.68;;
59308;SDS011;48433;53.016;-2.260;2023-09-07T06:10:40;16.65;;;11.30;;
59308;SDS011;48433;53.016;-2.260;2023-09-07T06:13:08;17.73;;;11.98;;
59308;SDS011;48433;53.016;-2.260;2023-09-07T06:15:36;17.40;;;12.32;;
59308;SDS011;48433;53.016;-2.260;2023-09-07T06:18:04;21.33;;;11.98;;
59308;SDS011;48433;53.016;-2.260;2023-09-07T06:20:33;15.90;;;11.90;;
59308;SDS011;48433;53.016;-2.260;2023-09-07T06:23:03;19.15;;;13.02;;
59308;SDS011;48433;53.016;-2.260;2023-09-07T06:25:30;18.80;;;12.27;;
59308;SDS011;48433;53.016;-2.260;2023-09-07T06:28:00;17.75;;;12.30;;
59308;SDS011;48433;53.016;-2.260;2023-09-07T06:30:29;18.45;;;12.20;;
59308;SDS011;48433;53.016;-2.260;2023-09-07T06:32:57;18.10;;;11.65;;
59308;SDS011;48433;53.016;-2.260;2023-09-07T06:35:26;16.45;;;11.23;;
59308;SDS011;48433;53.016;-2.260;2023-09-07T06:37:54;18.63;;;10.73;;
59308;SDS011;48433;53.016;-2.260;2023-09-07T06:40:24;16.77;;;10.75;;
59308;SDS011;48433;53.016;-2.260;2023-09-07T06:42:56;15.30;;;10.30;;
59308;SDS011;48433;53.016;-2.260;2023-09-07T06:45:25;15.80;;;11.00;;
59308;SDS011;48433;53.016;-2.260;2023-09-07T06:47:54;12.27;;;9.60;;
59308;SDS011;48433;53.016;-2.260;2023-09-07T06:50:24;13.27;;;10.25;;
59308;SDS011;48433;53.016;-2.260;2023-09-07T06:52:52;14.55;;;9.85;;
59308;SDS011;48433;53.016;-2.260;2023-09-07T06:55:20;18.23;;;10.65;;
59308;SDS011;48433;53.016;-2.260;2023-09-07T06:57:48;14.73;;;11.60;;
59308;SDS011;48433;53.016;-2.260;2023-09-07T07:00:16;15.65;;;10.90;;
59308;SDS011;48433;53.016;-2.260;2023-09-07T07:02:44;17.45;;;10.90;;
59308;SDS011;48433;53.016;-2.260;2023-09-07T07:05:13;12.90;;;10.75;;
59308;SDS011;48433;53.016;-2.260;2023-09-07T07:07:42;16.75;;;10.50;;
59308;SDS011;48433;53.016;-2.260;2023-09-07T07:10:10;14.88;;;10.13;;
59308;SDS011;48433;53.016;-2.260;2023-09-07T07:12:39;18.27;;;10.25;;
59308;SDS011;48433;53.016;-2.260;2023-09-07T07:15:08;14.63;;;9.82;;
59308;SDS011;48433;53.016;-2.260;2023-09-07T07:17:36;13.20;;;10.25;;
59308;SDS011;48433;53.016;-2.260;2023-09-07T07:20:04;13.75;;;9.88;;
59308;SDS011;48433;53.016;-2.260;2023-09-07T07:22:32;13.05;;;8.95;;
59308;SDS011;48433;53.016;-2.260;2023-09-07T07:25:03;14.60;;;9.93;;
59308;SDS011;48433;53.016;-2.260;2023-09-07T07:27:33;12.93;;;9.38;;
59308;SDS011;48433;53.016;-2.260;2023-09-07T07:30:01;17.33;;;9.73;;
59308;SDS011;48433;53.016;-2.260;2023-09-07T07:32:30;12.20;;;8.18;;
59308;SDS011;48433;53.016;-2.260;2023-09-07T07:34:58;14.90;;;8.95;;
59308;SDS011;48433;53.016;-2.260;2023-09-07T07:37:26;13.20;;;8.75;;
59308;SDS011;48433;53.016;-2.260;2023-09-07T07:39:54;14.52;;;9.20;;
59308;SDS011;48433;53.016;-2.260;2023-09-07T07:42:21;11.57;;;8.50;;
59308;SDS011;48433;53.016;-2.260;2023-09-07T07:44:50;10.93;;;8.00;;
59308;SDS011;48433;53.016;-2.260;2023-09-07T07:47:17;13.35;;;9.00;;
59308;SDS011;48433;53.016;-2.260;2023-09-07T07:49:45;13.18;;;9.35;;
59308;SDS011;48433;53.016;-2.260;2023-09-07T07:52:13;15.43;;;9.32;;
59308;SDS011;48433;53.016;-2.260;2023-09-07T07:54:41;16.30;;;9.40;;
59308;SDS011;48433;53.016;-2.260;2023-09-07T07:57:10;14.93;;;8.73;;
59308;SDS011;48433;53.016;-2.260;2023-09-07T07:59:38;12.30;;;8.25;;
59308;SDS011;48433;53.016;-2.260;2023-09-07T08:02:06;12.95;;;8.93;;
59308;SDS011;48433;53.016;-2.260;2023-09-07T08:04:34;12.48;;;8.68;;
59308;SDS011;48433;53.016;-2.260;2023-09-07T08:07:04;14.68;;;9.13;;
59308;SDS011;48433;53.016;-2.260;2023-09-07T08:09:33;13.43;;;8.05;;
59308;SDS011;48433;53.016;-2.260;2023-09-07T08:12:01;16.65;;;9.05;;
59308;SDS011;48433;53.016;-2.260;2023-09-07T08:14:31;12.88;;;8.80;;
59308;SDS011;48433;53.016;-2.260;2023-09-07T08:17:01;11.93;;;8.73;;
59308;SDS011;48433;53.016;-2.260;2023-09-07T08:19:30;13.75;;;8.20;;
59308;SDS011;48433;53.016;-2.260;2023-09-07T08:22:00;12.60;;;8.60;;
59308;SDS011;48433;53.016;-2.260;2023-09-07T08:24:32;13.63;;;8.65;;
59308;SDS011;48433;53.016;-2.260;2023-09-07T08:27:01;12.13;;;8.70;;
59308;SDS011;48433;53.016;-2.260;2023-09-07T08:29:29;19.52;;;8.95;;
59308;SDS011;48433;53.016;-2.260;2023-09-07T08:31:59;18.92;;;8.68;;
59308;SDS011;48433;53.016;-2.260;2023-09-07T08:34:31;13.27;;;8.40;;
59308;SDS011;48433;53.016;-2.260;2023-09-07T08:36:59;15.73;;;9.80;;
59308;SDS011;48433;53.016;-2.260;2023-09-07T08:39:27;14.13;;;9.60;;
59308;SDS011;48433;53.016;-2.260;2023-09-07T08:41:55;16.27;;;10.63;;
59308;SDS011;48433;53.016;-2.260;2023-09-07T08:44:28;14.75;;;9.45;;
59308;SDS011;48433;53.016;-2.260;2023-09-07T08:46:57;14.98;;;9.70;;
59308;SDS011;48433;53.016;-2.260;2023-09-07T08:49:25;14.82;;;8.65;;
59308;SDS011;48433;53.016;-2.260;2023-09-07T08:51:54;13.65;;;8.68;;
59308;SDS011;48433;53.016;-2.260;2023-09-07T08:54:26;13.95;;;9.13;;
59308;SDS011;48433;53.016;-2.260;2023-09-07T08:56:53;15.80;;;8.65;;
59308;SDS011;48433;53.016;-2.260;2023-09-07T08:59:24;15.15;;;9.18;;
59308;SDS011;48433;53.016;-2.260;2023-09-07T09:01:55;12.00;;;8.00;;
59308;SDS011;48433;53.016;-2.260;2023-09-07T09:04:27;12.90;;;7.53;;
59308;SDS011;48433;53.016;-2.260;2023-09-07T09:06:56;12.38;;;8.18;;
59308;SDS011;48433;53.016;-2.260;2023-09-07T09:09:24;14.32;;;7.45;;
59308;SDS011;48433;53.016;-2.260;2023-09-07T09:11:52;13.55;;;8.18;;
59308;SDS011;48433;53.016;-2.260;2023-09-07T09:14:20;11.25;;;7.82;;
59308;SDS011;48433;53.016;-2.260;2023-09-07T09:16:52;13.80;;;8.70;;
59308;SDS011;48433;53.016;-2.260;2023-09-07T09:19:29;16.30;;;7.70;;
59308;SDS011;48433;53.016;-2.260;2023-09-07T09:22:01;14.82;;;7.82;;
59308;SDS011;48433;53.016;-2.260;2023-09-07T09:24:33;12.50;;;8.25;;
59308;SDS011;48433;53.016;-2.260;2023-09-07T09:27:04;14.10;;;8.35;;
59308;SDS011;48433;53.016;-2.260;2023-09-07T09:29:32;13.27;;;8.45;;
59308;SDS011;48433;53.016;-2.260;2023-09-07T09:32:03;12.73;;;7.60;;
59308;SDS011;48433;53.016;-2.260;2023-09-07T09:34:32;11.18;;;7.68;;
59308;SDS011;48433;53.016;-2.260;2023-09-07T09:37:02;10.77;;;7.35;;
59308;SDS011;48433;53.016;-2.260;2023-09-07T09:39:33;13.40;;;8.05;;
59308;SDS011;48433;53.016;-2.260;2023-09-07T09:42:02;12.23;;;8.40;;
59308;SDS011;48433;53.016;-2.260;2023-09-07T09:44:30;11.32;;;7.80;;
59308;SDS011;48433;53.016;-2.260;2023-09-07T09:46:59;12.43;;;7.63;;
59308;SDS011;48433;53.016;-2.260;2023-09-07T09:49:27;13.10;;;7.45;;
59308;SDS011;48433;53.016;-2.260;2023-09-07T09:51:56;12.55;;;7.38;;
59308;SDS011;48433;53.016;-2.260;2023-09-07T09:54:25;13.57;;;7.95;;
59308;SDS011;48433;53.016;-2.260;2023-09-07T09:56:54;13.48;;;7.03;;
59308;SDS011;48433;53.016;-2.260;2023-09-07T09:59:22;11.98;;;8.07;;
59308;SDS011;48433;53.016;-2.260;2023-09-07T10:01:50;11.18;;;7.53;;
59308;SDS011;48433;53.016;-2.260;2023-09-07T10:04:20;11.75;;;7.50;;
59308;SDS011;48433;53.016;-2.260;2023-09-07T10:06:54;11.10;;;7.70;;
59308;SDS011;48433;53.016;-2.260;2023-09-07T10:09:22;12.15;;;7.78;;
59308;SDS011;48433;53.016;-2.260;2023-09-07T10:11:53;10.00;;;7.50;;
59308;SDS011;48433;53.016;-2.260;2023-09-07T10:14:21;15.15;;;7.93;;
59308;SDS011;48433;53.016;-2.260;2023-09-07T10:16:50;11.00;;;7.75;;
59308;SDS011;48433;53.016;-2.260;2023-09-07T10:19:21;14.07;;;8.35;;
59308;SDS011;48433;53.016;-2.260;2023-09-07T10:21:53;10.77;;;7.35;;
59308;SDS011;48433;53.016;-2.260;2023-09-07T10:24:29;14.93;;;9.00;;
59308;SDS011;48433;53.016;-2.260;2023-09-07T10:27:00;10.00;;;7.45;;
59308;SDS011;48433;53.016;-2.260;2023-09-07T10:29:39;11.23;;;7.45;;
59308;SDS011;48433;53.016;-2.260;2023-09-07T10:32:12;10.80;;;7.03;;
59308;SDS011;48433;53.016;-2.260;2023-09-07T10:35:12;12.35;;;7.88;;
59308;SDS011;48433;53.016;-2.260;2023-09-07T10:37:46;11.98;;;8.32;;
59308;SDS011;48433;53.016;-2.260;2023-09-07T10:40:23;12.20;;;8.10;;
59308;SDS011;48433;53.016;-2.260;2023-09-07T10:43:00;11.52;;;7.93;;
59308;SDS011;48433;53.016;-2.260;2023-09-07T10:45:29;11.20;;;7.30;;
59308;SDS011;48433;53.016;-2.260;2023-09-07T10:47:57;12.18;;;8.43;;
59308;SDS011;48433;53.016;-2.260;2023-09-07T10:50:25;11.50;;;7.50;;
59308;SDS011;48433;53.016;-2.260;2023-09-07T10:52:53;10.43;;;7.70;;
59308;SDS011;48433;53.016;-2.260;2023-09-07T10:55:21;9.73;;;7.15;;
59308;SDS011;48433;53.016;-2.260;2023-09-07T10:57:48;11.57;;;7.28;;
59308;SDS011;48433;53.016;-2.260;2023-09-07T11:00:16;14.98;;;7.75;;
59308;SDS011;48433;53.016;-2.260;2023-09-07T11:02:44;13.63;;;8.05;;
59308;SDS011;48433;53.016;-2.260;2023-09-07T11:05:12;11.02;;;7.25;;
59308;SDS011;48433;53.016;-2.260;2023-09-07T11:07:40;9.20;;;7.32;;
59308;SDS011;48433;53.016;-2.260;2023-09-07T11:10:10;13.77;;;7.25;;
59308;SDS011;48433;53.016;-2.260;2023-09-07T11:12:39;10.70;;;6.88;;
59308;SDS011;48433;53.016;-2.260;2023-09-07T11:15:10;13.00;;;6.53;;
59308;SDS011;48433;53.016;-2.260;2023-09-07T11:17:38;12.68;;;6.50;;
59308;SDS011;48433;53.016;-2.260;2023-09-07T11:20:07;8.43;;;6.38;;
59308;SDS011;48433;53.016;-2.260;2023-09-07T11:22:35;12.60;;;6.38;;
59308;SDS011;48433;53.016;-2.260;2023-09-07T11:25:21;10.82;;;7.00;;
59308;SDS011;48433;53.016;-2.260;2023-09-07T11:27:48;10.50;;;6.40;;
59308;SDS011;48433;53.016;-2.260;2023-09-07T11:30:19;8.35;;;6.35;;
59308;SDS011;48433;53.016;-2.260;2023-09-07T11:32:47;9.20;;;6.03;;
59308;SDS011;48433;53.016;-2.260;2023-09-07T11:35:15;10.57;;;6.75;;
59308;SDS011;48433;53.016;-2.260;2023-09-07T11:37:43;9.95;;;7.00;;
59308;SDS011;48433;53.016;-2.260;2023-09-07T11:40:19;8.63;;;6.35;;
59308;SDS011;48433;53.016;-2.260;2023-09-07T11:42:47;9.57;;;7.07;;
59308;SDS011;48433;53.016;-2.260;2023-09-07T11:45:15;9.15;;;6.57;;
59308;SDS011;48433;53.016;-2.260;2023-09-07T11:47:46;8.32;;;6.30;;
59308;SDS011;48433;53.016;-2.260;2023-09-07T11:50:16;9.68;;;6.50;;
59308;SDS011;48433;53.016;-2.260;2023-09-07T11:52:45;10.80;;;6.82;;
59308;SDS011;48433;53.016;-2.260;2023-09-07T11:55:13;10.50;;;6.38;;
59308;SDS011;48433;53.016;-2.260;2023-09-07T11:57:42;12.35;;;6.57;;
59308;SDS011;48433;53.016;-2.260;2023-09-07T12:00:10;8.50;;;6.15;;
59308;SDS011;48433;53.016;-2.260;2023-09-07T12:02:41;10.32;;;6.20;;
59308;SDS011;48433;53.016;-2.260;2023-09-07T12:05:09;10.10;;;6.72;;
59308;SDS011;48433;53.016;-2.260;2023-09-07T12:07:45;8.75;;;5.97;;
59308;SDS011;48433;53.016;-2.260;2023-09-07T12:10:13;8.70;;;5.90;;
59308;SDS011;48433;53.016;-2.260;2023-09-07T12:12:41;14.02;;;6.68;;
59308;SDS011;48433;53.016;-2.260;2023-09-07T12:15:09;9.15;;;6.53;;
59308;SDS011;48433;53.016;-2.260;2023-09-07T12:17:40;9.80;;;6.60;;
59308;SDS011;48433;53.016;-2.260;2023-09-07T12:20:09;9.50;;;6.88;;
59308;SDS011;48433;53.016;-2.260;2023-09-07T12:22:38;10.27;;;6.10;;
59308;SDS011;48433;53.016;-2.260;2023-09-07T12:25:06;8.75;;;7.07;;
59308;SDS011;48433;53.016;-2.260;2023-09-07T12:27:44;10.75;;;6.80;;
59308;SDS011;48433;53.016;-2.260;2023-09-07T12:30:20;8.50;;;6.68;;
59308;SDS011;48433;53.016;-2.260;2023-09-07T12:32:50;9.20;;;6.47;;
59308;SDS011;48433;53.016;-2.260;2023-09-07T12:35:18;7.50;;;6.13;;
59308;SDS011;48433;53.016;-2.260;2023-09-07T12:37:47;10.00;;;6.45;;
59308;SDS011;48433;53.016;-2.260;2023-09-07T12:40:15;10.50;;;6.28;;
59308;SDS011;48433;53.016;-2.260;2023-09-07T12:42:44;9.73;;;6.85;;
59308;SDS011;48433;53.016;-2.260;2023-09-07T12:45:12;8.73;;;5.93;;
59308;SDS011;48433;53.016;-2.260;2023-09-07T12:47:42;10.10;;;7.00;;
59308;SDS011;48433;53.016;-2.260;2023-09-07T12:50:09;10.15;;;6.25;;
59308;SDS011;48433;53.016;-2.260;2023-09-07T12:52:38;9.68;;;7.65;;
59308;SDS011;48433;53.016;-2.260;2023-09-07T12:55:06;11.50;;;6.68;;
59308;SDS011;48433;53.016;-2.260;2023-09-07T12:57:34;11.50;;;7.68;;
59308;SDS011;48433;53.016;-2.260;2023-09-07T13:00:05;9.85;;;6.57;;
59308;SDS011;48433;53.016;-2.260;2023-09-07T13:02:33;8.85;;;6.20;;
59308;SDS011;48433;53.016;-2.260;2023-09-07T13:05:01;10.85;;;6.35;;
59308;SDS011;48433;53.016;-2.260;2023-09-07T13:07:33;9.07;;;6.20;;
59308;SDS011;48433;53.016;-2.260;2023-09-07T13:10:02;11.07;;;6.88;;
59308;SDS011;48433;53.016;-2.260;2023-09-07T13:12:31;10.70;;;6.65;;
59308;SDS011;48433;53.016;-2.260;2023-09-07T13:15:00;11.38;;;6.07;;
59308;SDS011;48433;53.016;-2.260;2023-09-07T13:17:28;10.10;;;6.88;;
59308;SDS011;48433;53.016;-2.260;2023-09-07T13:19:55;8.63;;;6.10;;
59308;SDS011;48433;53.016;-2.260;2023-09-07T13:22:23;11.23;;;6.82;;
59308;SDS011;48433;53.016;-2.260;2023-09-07T13:24:51;10.85;;;7.43;;
59308;SDS011;48433;53.016;-2.260;2023-09-07T13:27:18;11.30;;;6.82;;
59308;SDS011;48433;53.016;-2.260;2023-09-07T13:29:46;9.48;;;6.75;;
59308;SDS011;48433;53.016;-2.260;2023-09-07T13:34:54;8.55;;;6.57;;
59308;SDS011;48433;53.016;-2.260;2023-09-07T13:37:22;11.50;;;6.78;;
59308;SDS011;48433;53.016;-2.260;2023-09-07T13:39:50;9.32;;;7.32;;
59308;SDS011;48433;53.016;-2.260;2023-09-07T13:42:17;10.07;;;7.35;;
59308;SDS011;48433;53.016;-2.260;2023-09-07T13:44:45;11.65;;;7.07;;
59308;SDS011;48433;53.016;-2.260;2023-09-07T13:47:14;11.98;;;7.15;;
59308;SDS011;48433;53.016;-2.260;2023-09-07T13:49:42;9.27;;;6.60;;
59308;SDS011;48433;53.016;-2.260;2023-09-07T13:52:09;10.57;;;7.18;;
59308;SDS011;48433;53.016;-2.260;2023-09-07T13:54:37;10.82;;;5.72;;
59308;SDS011;48433;53.016;-2.260;2023-09-07T13:57:05;9.27;;;6.40;;
59308;SDS011;48433;53.016;-2.260;2023-09-07T13:59:33;9.77;;;6.40;;
59308;SDS011;48433;53.016;-2.260;2023-09-07T14:02:01;9.80;;;5.95;;
59308;SDS011;48433;53.016;-2.260;2023-09-07T14:04:29;8.55;;;6.15;;
59308;SDS011;48433;53.016;-2.260;2023-09-07T14:06:58;11.43;;;6.35;;
59308;SDS011;48433;53.016;-2.260;2023-09-07T14:09:25;7.47;;;6.13;;
59308;SDS011;48433;53.016;-2.260;2023-09-07T14:11:53;10.68;;;6.63;;
59308;SDS011;48433;53.016;-2.260;2023-09-07T14:14:21;7.68;;;6.32;;
59308;SDS011;48433;53.016;-2.260;2023-09-07T14:16:49;8.80;;;6.55;;
59308;SDS011;48433;53.016;-2.260;2023-09-07T14:19:17;12.32;;;7.18;;
59308;SDS011;48433;53.016;-2.260;2023-09-07T14:21:45;9.20;;;6.82;;
59308;SDS011;48433;53.016;-2.260;2023-09-07T14:24:13;13.20;;;6.80;;
59308;SDS011;48433;53.016;-2.260;2023-09-07T14:26:40;13.68;;;6.80;;
59308;SDS011;48433;53.016;-2.260;2023-09-07T14:29:08;10.65;;;6.50;;
59308;SDS011;48433;53.016;-2.260;2023-09-07T14:31:36;9.35;;;7.03;;